Time;durP1;ratioP1;P1;durP2;ratioP2;P2;SDS_P1;SDS_P2;PMS_P1;PMS_P2;Temp;Humidity;BMP_temperature;BMP_pressure;BME280_temperature;BME280_humidity;BME280_pressure;Samples;Min_cycle;Max_cycle;Signal;HPM_P1;HPM_P2
2022/06/17 00:00:31;;;;;;;4.93;4.43;;;;;;;20.03;68.67;99781.91;5071691;28;20437;-65
2022/06/17 00:02:58;;;;;;;8.97;4.20;;;;;;;20.05;68.30;99785.38;5072032;28;20653;-65
2022/06/17 00:05:24;;;;;;;5.70;4.67;;;;;;;20.09;68.14;99780.94;5072158;28;20180;-65
2022/06/17 00:07:51;;;;;;;5.33;4.13;;;;;;;20.00;68.57;99785.41;5071752;28;20191;-64
2022/06/17 00:10:23;;;;;;;6.10;4.10;;;;;;;19.94;69.04;99777.69;5072006;28;20191;-65
2022/06/17 00:12:51;;;;;;;6.53;4.67;;;;;;;19.98;69.87;99775.91;5071670;28;20657;-65
2022/06/17 00:15:19;;;;;;;5.00;4.60;;;;;;;19.89;70.50;99776.06;5071879;28;20203;-65
2022/06/17 00:17:50;;;;;;;5.10;4.30;;;;;;;19.86;70.77;99774.34;5071883;28;20226;-65
2022/06/17 00:20:21;;;;;;;5.73;5.03;;;;;;;19.83;71.22;99777.00;5071779;28;20196;-65
2022/06/17 00:22:48;;;;;;;9.57;5.27;;;;;;;19.84;71.57;99770.06;5071392;28;20681;-65
2022/06/17 00:25:21;;;;;;;6.18;5.22;;;;;;;19.89;71.55;99763.00;5070473;28;20434;-65
2022/06/17 00:27:48;;;;;;;11.30;6.27;;;;;;;19.92;71.49;99773.41;5071465;28;20176;-65
2022/06/17 00:30:17;;;;;;;10.47;6.27;;;;;;;19.86;71.95;99774.34;5071283;28;20199;-64
2022/06/17 00:32:44;;;;;;;6.50;5.80;;;;;;;19.85;72.09;99767.44;5071217;28;20199;-65
2022/06/17 00:35:13;;;;;;;6.73;5.23;;;;;;;19.83;72.51;99763.97;5071363;28;20223;-64
2022/06/17 00:37:41;;;;;;;5.93;4.30;;;;;;;19.85;72.46;99777.88;5071273;28;20567;-65
2022/06/17 00:40:14;;;;;;;6.07;5.07;;;;;;;19.85;72.30;99766.56;5071317;28;20570;-65
2022/06/17 00:42:43;;;;;;;9.37;4.80;;;;;;;19.78;72.55;99772.75;5070837;28;20231;-64
2022/06/17 00:45:19;;;;;;;5.73;5.17;;;;;;;19.69;72.94;99763.38;5071352;28;20198;-65
2022/06/17 00:47:52;;;;;;;7.53;5.17;;;;;;;19.69;72.63;99765.13;5071300;28;20605;-64
2022/06/17 00:50:27;;;;;;;6.10;5.10;;;;;;;19.69;72.88;99760.75;5070827;28;20692;-64
2022/06/17 00:53:02;;;;;;;7.40;5.27;;;;;;;19.66;72.81;99755.59;5070770;28;20195;-65
2022/06/17 00:55:34;;;;;;;5.63;4.90;;;;;;;19.64;73.15;99757.34;5070785;28;20256;-65
2022/06/17 00:58:05;;;;;;;5.97;5.37;;;;;;;19.61;73.41;99766.97;5070976;28;20191;-65
2022/06/17 01:00:33;;;;;;;6.37;5.10;;;;;;;19.59;73.35;99759.16;5070939;28;20196;-65
2022/06/17 01:03:03;;;;;;;7.07;5.60;;;;;;;19.58;73.62;99767.03;5070903;28;20222;-64
2022/06/17 01:05:37;;;;;;;7.47;5.53;;;;;;;19.59;73.62;99763.50;5071020;28;20195;-64
2022/06/17 01:08:14;;;;;;;9.27;5.40;;;;;;;19.59;73.54;99746.13;5070974;28;20184;-65
2022/06/17 01:10:42;;;;;;;6.73;5.40;;;;;;;19.49;73.17;99725.47;5070718;28;20195;-65
2022/06/17 01:13:11;;;;;;;6.23;4.90;;;;;;;19.64;73.76;99756.50;5070584;28;20271;-64
2022/06/17 01:15:41;;;;;;;5.83;5.00;;;;;;;19.58;73.77;99752.25;5070629;28;20195;-64
2022/06/17 01:18:08;;;;;;;5.43;5.03;;;;;;;19.63;73.55;99749.56;5070489;28;20666;-65
2022/06/17 01:20:40;;;;;;;5.43;5.00;;;;;;;19.51;73.74;99727.16;5070564;28;20195;-65
2022/06/17 01:23:12;;;;;;;5.20;4.80;;;;;;;19.66;73.77;99739.09;5070556;28;20635;-64
2022/06/17 01:25:43;;;;;;;5.60;5.20;;;;;;;19.62;74.06;99751.31;5070369;28;20206;-65
2022/06/17 01:28:12;;;;;;;6.43;5.80;;;;;;;19.55;74.43;99731.44;5070101;28;20437;-65
2022/06/17 01:30:41;;;;;;;6.47;5.23;;;;;;;19.69;73.89;99739.03;5069864;28;20196;-66
2022/06/17 01:33:14;;;;;;;10.43;5.53;;;;;;;19.58;74.20;99747.03;5070670;28;20190;-64
2022/06/17 01:35:45;;;;;;;10.57;5.47;;;;;;;19.59;74.32;99737.44;5070599;28;20191;-64
2022/06/17 01:38:14;;;;;;;7.80;5.50;;;;;;;19.61;74.60;99740.91;5070292;28;20191;-65
2022/06/17 01:40:42;;;;;;;12.83;5.77;;;;;;;19.61;74.12;99739.19;5070174;28;20635;-64
2022/06/17 01:43:13;;;;;;;8.20;5.33;;;;;;;19.67;73.95;99735.56;5069950;28;20227;-65
2022/06/17 01:45:43;;;;;;;7.50;5.50;;;;;;;19.66;74.19;99726.06;5070489;28;20333;-63
2022/06/17 01:48:13;;;;;;;12.57;5.70;;;;;;;19.66;74.66;99729.53;5069965;28;20199;-63
2022/06/17 01:50:43;;;;;;;12.87;5.67;;;;;;;19.66;74.43;99729.53;5070256;28;20206;-65
2022/06/17 01:53:15;;;;;;;9.57;5.43;;;;;;;19.65;74.35;99735.63;5070467;28;20914;-65
2022/06/17 01:55:45;;;;;;;7.17;5.63;;;;;;;19.70;74.11;99731.19;5070068;28;20274;-64
2022/06/17 01:58:18;;;;;;;7.67;5.60;;;;;;;19.69;73.96;99736.44;5070067;28;20279;-64
2022/06/17 02:00:46;;;;;;;11.60;5.80;;;;;;;19.70;74.06;99725.09;5070357;28;20196;-64
2022/06/17 02:03:18;;;;;;;11.03;6.40;;;;;;;19.73;73.89;99731.13;5070021;28;20196;-64
2022/06/17 02:05:48;;;;;;;7.23;6.20;;;;;;;19.67;72.86;99735.56;5069907;28;20187;-65
2022/06/17 02:08:17;;;;;;;6.63;6.00;;;;;;;19.65;72.82;99724.31;5070397;28;20487;-64
2022/06/17 02:10:49;;;;;;;7.33;5.40;;;;;;;19.63;72.36;99723.50;5070095;28;20203;-65
2022/06/17 02:13:17;;;;;;;8.80;5.50;;;;;;;19.62;71.94;99726.97;5070198;28;20199;-65
2022/06/17 02:15:46;;;;;;;10.43;5.33;;;;;;;19.58;72.26;99723.59;5069859;28;20199;-65
2022/06/17 02:18:17;;;;;;;6.23;5.63;;;;;;;19.62;72.21;99734.78;5070004;28;20195;-64
2022/06/17 02:20:49;;;;;;;7.30;5.87;;;;;;;19.61;72.02;99728.75;5069881;28;20272;-64
2022/06/17 02:23:17;;;;;;;5.97;5.37;;;;;;;19.61;72.11;99738.31;5070064;28;20278;-65
2022/06/17 02:25:48;;;;;;;5.77;5.33;;;;;;;19.58;72.36;99743.56;5069837;28;20191;-65
2022/06/17 02:28:16;;;;;;;6.07;5.43;;;;;;;19.62;72.17;99737.41;5070059;28;20192;-65
2022/06/17 02:30:47;;;;;;;7.90;5.53;;;;;;;19.64;72.69;99740.88;5069792;28;20187;-65
2022/06/17 02:33:15;;;;;;;11.13;6.78;;;;;;;19.65;73.28;99740.81;5069437;28;20449;-64
2022/06/17 02:35:46;;;;;;;9.73;6.27;;;;;;;19.70;73.18;99740.75;5069557;28;20219;-64
2022/06/17 02:38:16;;;;;;;13.40;6.50;;;;;;;19.63;73.10;99737.41;5069588;28;20274;-65
2022/06/17 02:40:48;;;;;;;7.37;6.40;;;;;;;19.61;73.31;99736.56;5069943;28;20283;-65
2022/06/17 02:43:18;;;;;;;9.57;6.17;;;;;;;19.64;73.45;99731.28;5071201;28;20219;-64
2022/06/17 02:45:48;;;;;;;6.40;5.80;;;;;;;19.61;73.49;99736.56;5073265;28;20194;-64
2022/06/17 02:48:20;;;;;;;10.30;6.20;;;;;;;19.60;72.89;99736.56;5073394;28;20570;-65
2022/06/17 02:50:48;;;;;;;12.63;6.60;;;;;;;19.63;72.95;99741.75;5073250;28;20195;-65
2022/06/17 02:53:15;;;;;;;8.87;7.17;;;;;;;19.64;73.09;99738.25;5073607;28;20211;-64
2022/06/17 02:55:45;;;;;;;7.37;6.50;;;;;;;19.57;73.04;99736.63;5073444;28;20230;-64
2022/06/17 02:58:21;;;;;;;8.37;6.03;;;;;;;19.54;72.77;99734.94;5073195;28;20694;-65
2022/06/17 03:00:49;;;;;;;8.77;6.60;;;;;;;19.74;72.23;99743.28;5073291;28;20203;-64
2022/06/17 03:03:20;;;;;;;9.43;6.20;;;;;;;20.01;71.56;99744.56;5073423;28;20190;-64
2022/06/17 03:05:47;;;;;;;6.30;5.70;;;;;;;20.26;70.29;99750.22;5073226;28;20195;-65
2022/06/17 03:08:23;;;;;;;6.47;5.37;;;;;;;20.53;68.78;99747.06;5073039;28;20689;-65
2022/06/17 03:10:53;;;;;;;7.50;6.10;;;;;;;20.52;67.49;99706.19;5072950;28;20199;-64
2022/06/17 03:13:26;;;;;;;7.03;6.43;;;;;;;20.95;67.20;99751.41;5073621;28;20180;-64
2022/06/17 03:15:57;;;;;;;7.40;6.15;;;;;;;21.05;66.92;99752.06;5071973;28;20451;-64
2022/06/17 03:18:26;;;;;;;7.53;6.83;;;;;;;21.03;66.93;99748.63;5073096;28;20203;-64
2022/06/17 03:20:55;;;;;;;7.80;6.50;;;;;;;20.85;67.68;99726.34;5072876;28;20194;-64
2022/06/17 03:23:27;;;;;;;7.40;6.67;;;;;;;20.91;68.07;99754.97;5072759;28;20198;-65
2022/06/17 03:25:59;;;;;;;7.13;6.50;;;;;;;20.85;68.07;99757.69;5072784;28;20198;-65
2022/06/17 03:28:41;;;;;;;8.57;6.97;;;;;;;20.90;67.86;99762.84;5072787;28;20662;-65
2022/06/17 03:31:15;;;;;;;6.93;6.37;;;;;;;20.83;68.78;99763.84;5069848;28;20188;-57
2022/06/17 03:33:46;;;;;;;7.87;7.10;;;;;;;20.84;68.70;99768.19;5069507;28;20210;-65
2022/06/17 03:36:17;;;;;;;10.30;7.37;;;;;;;20.92;68.21;99772.38;5070334;28;20211;-65
2022/06/17 03:38:50;;;;;;;8.98;7.20;;;;;;;21.00;67.75;99767.84;5071425;28;20520;-65
2022/06/17 03:41:25;;;;;;;10.60;6.67;;;;;;;21.10;67.17;99772.00;5072356;28;20187;-64
2022/06/17 03:43:55;;;;;;;12.40;7.07;;;;;;;21.11;67.41;99772.88;5052128;28;20309;-65
2022/06/17 03:46:26;;;;;;;8.50;7.60;;;;;;;21.15;67.33;99780.59;5052617;28;20195;-64
2022/06/17 03:48:58;;;;;;;9.00;7.57;;;;;;;21.17;67.14;99773.59;5052544;28;20555;-65
2022/06/17 03:51:25;;;;;;;10.10;7.60;;;;;;;21.25;66.71;99770.81;5051037;28;20444;-64
2022/06/17 03:53:53;;;;;;;11.97;7.17;;;;;;;21.31;66.30;99772.44;5051910;28;20188;-65
2022/06/17 03:56:26;;;;;;;8.00;7.20;;;;;;;21.31;66.28;99778.53;5052305;28;20200;-65
2022/06/17 03:58:55;;;;;;;12.87;8.33;;;;;;;21.28;66.47;99773.34;5052067;28;20196;-64
2022/06/17 04:01:28;;;;;;;11.43;8.40;;;;;;;21.33;66.39;99770.63;5061483;28;20191;-65
2022/06/17 04:03:58;;;;;;;14.70;8.70;;;;;;;21.29;66.11;99771.59;5072010;28;20196;-65
2022/06/17 04:06:29;;;;;;;13.23;7.93;;;;;;;21.26;66.07;99774.28;5067406;28;20184;-56
2022/06/17 04:08:58;;;;;;;9.30;8.30;;;;;;;21.21;65.80;99770.88;5069531;28;20188;-56
2022/06/17 04:11:29;;;;;;;9.40;8.40;;;;;;;21.21;65.80;99769.16;5071865;28;20183;-56
2022/06/17 04:13:59;;;;;;;10.00;8.27;;;;;;;21.17;65.84;99767.50;5071690;28;20266;-57
2022/06/17 04:16:34;;;;;;;10.83;8.37;;;;;;;21.16;66.25;99758.81;5066289;28;20219;-57
2022/06/17 04:19:13;;;;;;;12.60;8.70;;;;;;;21.23;65.82;99767.38;5070146;28;20438;-56
2022/06/17 04:21:40;;;;;;;8.80;7.90;;;;;;;21.29;65.57;99769.00;5067447;28;20213;-56
2022/06/17 04:24:13;;;;;;;10.73;8.27;;;;;;;21.22;65.25;99772.63;5070618;28;20666;-57
2022/06/17 04:26:43;;;;;;;10.87;8.93;;;;;;;21.25;65.44;99768.19;5070331;28;20196;-57
2022/06/17 04:29:15;;;;;;;10.27;8.37;;;;;;;21.25;65.54;99773.41;5068853;28;20299;-57
2022/06/17 04:31:43;;;;;;;10.83;8.03;;;;;;;21.26;64.76;99769.91;5068473;28;20206;-56
2022/06/17 04:34:13;;;;;;;11.03;8.57;;;;;;;21.20;64.37;99775.28;5070432;28;20210;-57
2022/06/17 04:36:45;;;;;;;9.93;7.90;;;;;;;21.07;65.26;99769.44;5067991;28;20203;-57
2022/06/17 04:39:21;;;;;;;8.57;7.63;;;;;;;21.25;64.76;99768.19;5065162;28;20188;-57
2022/06/17 04:41:52;;;;;;;8.40;6.65;;;;;;;21.29;63.38;99767.22;5069648;28;20473;-56
2022/06/17 04:44:19;;;;;;;8.03;7.07;;;;;;;21.39;62.61;99767.88;5068883;28;20227;-57
2022/06/17 04:46:50;;;;;;;10.10;7.20;;;;;;;21.44;62.74;99772.09;5065886;28;20192;-56
2022/06/17 04:49:21;;;;;;;9.87;7.73;;;;;;;21.43;62.94;99757.31;5070087;28;20551;-57
2022/06/17 04:51:48;;;;;;;7.17;6.40;;;;;;;21.48;61.72;99759.84;5070800;28;20199;-56
2022/06/17 04:54:16;;;;;;;7.30;6.60;;;;;;;21.50;61.62;99765.88;5070418;28;20208;-57
2022/06/17 04:56:46;;;;;;;10.73;7.07;;;;;;;21.60;62.06;99768.22;5070379;28;20196;-56
2022/06/17 04:59:30;;;;;;;10.73;9.23;;;;;;;21.69;62.66;99767.16;5070261;28;20438;-56
2022/06/17 05:01:57;;;;;;;8.77;7.60;;;;;;;21.76;61.71;99771.31;5070298;28;20244;-56
2022/06/17 05:04:25;;;;;;;8.17;7.37;;;;;;;21.84;61.61;99769.38;5070552;28;20195;-56
2022/06/17 05:06:52;;;;;;;9.33;7.57;;;;;;;21.83;61.11;99769.44;5069650;28;20191;-57
2022/06/17 05:09:23;;;;;;;8.60;7.70;;;;;;;21.85;60.87;99765.00;5070380;28;20709;-56
2022/06/17 05:11:54;;;;;;;8.73;7.00;;;;;;;21.95;61.44;99771.78;5070308;28;20195;-57
2022/06/17 05:14:30;;;;;;;8.93;6.47;;;;;;;22.04;59.87;99779.38;5069935;28;20198;-56
2022/06/17 05:16:58;;;;;;;7.37;6.57;;;;;;;22.01;59.98;99771.59;5070158;28;20441;-56
2022/06/17 05:19:25;;;;;;;7.43;6.73;;;;;;;22.09;59.67;99778.34;5070012;28;20455;-59
2022/06/17 05:21:52;;;;;;;8.10;7.27;;;;;;;22.19;59.76;99774.63;5069124;28;20199;-55
2022/06/17 05:24:19;;;;;;;7.60;6.80;;;;;;;22.26;58.95;99772.69;5069797;28;20647;-56
2022/06/17 05:26:45;;;;;;;11.40;6.57;;;;;;;22.30;58.58;99776.94;5069933;28;20184;-57
2022/06/17 05:29:12;;;;;;;7.67;5.93;;;;;;;22.17;58.94;99776.41;5069721;28;20187;-56
2022/06/17 05:31:40;;;;;;;6.37;5.73;;;;;;;22.19;59.15;99769.38;5069988;28;20195;-56
2022/06/17 05:34:07;;;;;;;7.87;6.93;;;;;;;22.27;58.72;99770.03;5069986;28;20218;-55
2022/06/17 05:36:34;;;;;;;10.23;6.90;;;;;;;22.27;57.67;99769.19;5069686;28;20219;-64
2022/06/17 05:39:01;;;;;;;7.20;6.20;;;;;;;22.28;57.51;99765.63;5066968;28;20221;-65
2022/06/17 05:41:28;;;;;;;9.80;7.50;;;;;;;22.36;58.70;99766.28;5053788;28;20931;-64
2022/06/17 05:43:55;;;;;;;7.10;6.40;;;;;;;22.46;58.93;99773.00;5069600;28;20234;-64
2022/06/17 05:46:21;;;;;;;9.07;7.13;;;;;;;22.55;58.76;99777.97;5069268;28;20449;-64
2022/06/17 05:48:50;;;;;;;7.30;6.60;;;;;;;22.49;57.95;99775.56;5069852;28;20192;-64
2022/06/17 05:51:16;;;;;;;8.43;6.95;;;;;;;22.50;58.20;99772.00;5057627;28;20791;-65
2022/06/17 05:53:43;;;;;;;10.00;8.00;;;;;;;22.52;58.57;99762.38;5067333;28;20460;-65
2022/06/17 05:56:10;;;;;;;8.55;7.30;;;;;;;22.80;58.34;99765.94;5067405;28;20453;-66
2022/06/17 05:58:38;;;;;;;7.00;6.30;;;;;;;22.98;57.54;99763.69;5058304;28;20568;-66
2022/06/17 06:01:05;;;;;;;9.93;7.33;;;;;;;22.95;57.88;99764.63;5069267;28;20255;-66
2022/06/17 06:03:32;;;;;;;9.10;7.20;;;;;;;22.84;58.20;99758.84;5069528;28;20191;-66
2022/06/17 06:06:01;;;;;;;7.47;6.27;;;;;;;22.75;57.45;99757.34;5069542;28;20192;-66
2022/06/17 06:08:28;;;;;;;8.00;7.13;;;;;;;22.50;58.87;99755.44;5069823;28;20246;-66
2022/06/17 06:10:54;;;;;;;8.67;7.77;;;;;;;22.64;59.33;99754.19;5069893;28;20191;-66
2022/06/17 06:13:23;;;;;;;9.77;7.00;;;;;;;22.65;58.73;99755.03;5068283;28;20445;-65
2022/06/17 06:15:54;;;;;;;7.47;6.73;;;;;;;22.73;58.59;99753.06;5068858;28;20223;-65
2022/06/17 06:18:24;;;;;;;9.10;7.00;;;;;;;22.69;59.03;99749.66;5072427;28;20199;-65
2022/06/17 06:20:51;;;;;;;8.40;7.27;;;;;;;22.73;58.31;99746.06;5071700;28;20211;-66
2022/06/17 06:23:19;;;;;;;10.10;7.83;;;;;;;22.70;58.73;99746.16;5072344;28;20570;-66
2022/06/17 06:25:46;;;;;;;11.27;7.33;;;;;;;22.45;59.00;99718.91;5072182;28;20219;-66
2022/06/17 06:28:17;;;;;;;8.97;7.00;;;;;;;22.60;59.18;99747.28;5072418;28;20195;-65
2022/06/17 06:30:51;;;;;;;8.17;7.40;;;;;;;22.75;58.82;99754.72;5072286;28;20215;-65
2022/06/17 06:33:18;;;;;;;8.17;7.27;;;;;;;22.67;59.62;99746.25;5072332;28;20192;-65
2022/06/17 06:35:45;;;;;;;7.70;6.95;;;;;;;22.75;59.24;99749.50;5072155;28;20445;-65
2022/06/17 06:38:12;;;;;;;7.90;7.20;;;;;;;22.63;59.46;99742.00;5072988;28;20207;-65
2022/06/17 06:40:41;;;;;;;10.63;7.40;;;;;;;22.73;59.39;99742.59;5073072;28;20200;-65
2022/06/17 06:43:14;;;;;;;9.00;8.10;;;;;;;22.82;60.20;99737.09;5072618;28;20223;-66
2022/06/17 06:45:41;;;;;;;8.03;7.33;;;;;;;22.87;60.52;99728.19;5072904;28;20287;-66
2022/06/17 06:48:09;;;;;;;8.37;7.50;;;;;;;22.97;60.25;99725.25;5072643;28;20589;-66
2022/06/17 06:50:37;;;;;;;9.97;7.97;;;;;;;23.15;59.82;99716.84;5072800;28;20196;-65
2022/06/17 06:53:04;;;;;;;10.87;8.90;;;;;;;23.30;58.95;99711.97;5072357;28;20571;-66
2022/06/17 06:55:34;;;;;;;8.50;6.63;;;;;;;23.41;58.51;99707.28;5072095;28;20223;-66
2022/06/17 06:58:06;;;;;;;8.97;6.30;;;;;;;23.31;56.51;99702.34;5073062;28;20198;-66
2022/06/17 07:00:36;;;;;;;10.27;6.37;;;;;;;23.33;56.43;99703.16;5072501;28;20210;-66
2022/06/17 07:03:03;;;;;;;6.37;5.77;;;;;;;23.35;56.19;99698.72;5072651;28;20199;-66
2022/06/17 07:05:30;;;;;;;9.73;6.37;;;;;;;23.52;55.94;99682.44;5072266;28;20191;-66
2022/06/17 07:07:58;;;;;;;7.03;6.40;;;;;;;23.46;56.04;99687.00;5072365;28;20199;-66
2022/06/17 07:10:27;;;;;;;7.20;6.50;;;;;;;23.26;56.02;99663.19;5072402;28;20286;-65
2022/06/17 07:12:54;;;;;;;7.07;5.80;;;;;;;23.52;55.54;99685.94;5072208;28;20220;-65
2022/06/17 07:15:23;;;;;;;7.07;6.37;;;;;;;23.55;54.43;99679.72;5071959;28;20215;-65
2022/06/17 07:17:59;;;;;;;7.90;6.10;;;;;;;23.65;55.12;99671.50;5071258;28;20445;-65
2022/06/17 07:20:31;;;;;;;8.20;6.77;;;;;;;23.95;55.21;99667.81;5072267;28;20206;-65
2022/06/17 07:22:58;;;;;;;7.93;5.73;;;;;;;24.12;53.44;99662.00;5072139;28;20693;-66
2022/06/17 07:25:25;;;;;;;6.97;5.90;;;;;;;24.13;52.00;99663.72;5071890;28;20198;-66
2022/06/17 07:27:52;;;;;;;5.30;4.80;;;;;;;24.04;51.61;99664.00;5071619;28;20188;-65
2022/06/17 07:30:21;;;;;;;6.37;5.60;;;;;;;24.07;51.23;99658.66;5071218;28;20229;-58
2022/06/17 07:32:49;;;;;;;7.23;5.37;;;;;;;24.10;51.44;99650.69;5071826;28;20199;-57
2022/06/17 07:35:16;;;;;;;7.33;5.90;;;;;;;24.23;51.65;99653.75;5071501;28;20195;-57
2022/06/17 07:40:29;;;;;;;6.53;5.78;;;;;;;24.41;51.20;99651.28;5071017;28;20417;-56
2022/06/17 07:42:56;;;;;;;8.07;5.67;;;;;;;24.47;51.53;99650.22;5071155;28;20220;-57
2022/06/17 07:45:24;;;;;;;11.47;6.63;;;;;;;24.59;51.83;99647.97;5071398;28;20293;-57
2022/06/17 07:47:53;;;;;;;11.33;5.80;;;;;;;24.65;50.88;99652.13;5071480;28;20546;-57
2022/06/17 07:50:23;;;;;;;7.07;5.60;;;;;;;24.65;50.75;99652.97;5071653;28;20646;-57
2022/06/17 07:52:50;;;;;;;6.03;5.53;;;;;;;24.74;50.67;99643.03;5071244;28;20194;-57
2022/06/17 07:55:17;;;;;;;8.13;7.03;;;;;;;24.77;50.89;99643.78;5071097;28;20207;-57
2022/06/17 07:57:45;;;;;;;7.07;6.00;;;;;;;24.83;49.28;99643.53;5071195;28;20578;-57
2022/06/17 08:00:19;;;;;;;9.03;7.13;;;;;;;24.72;49.41;99621.22;5071084;28;20188;-57
2022/06/17 08:02:46;;;;;;;6.33;5.73;;;;;;;24.88;50.34;99643.38;5071774;28;20206;-57
2022/06/17 08:05:15;;;;;;;7.03;6.43;;;;;;;24.97;49.72;99640.41;5071582;28;20332;-57
2022/06/17 08:07:42;;;;;;;7.27;6.67;;;;;;;25.07;49.78;99647.84;5070764;28;20210;-57
2022/06/17 08:10:09;;;;;;;8.87;6.67;;;;;;;25.09;49.40;99645.16;5071100;28;20247;-57
2022/06/17 08:12:36;;;;;;;7.17;6.47;;;;;;;25.14;49.50;99651.94;5070914;28;20196;-57
2022/06/17 08:15:04;;;;;;;7.83;6.77;;;;;;;25.10;50.33;99645.09;5070769;28;20578;-57
2022/06/17 08:17:31;;;;;;;8.67;6.70;;;;;;;25.20;50.06;99635.06;5070793;28;20594;-56
2022/06/17 08:19:58;;;;;;;8.03;6.63;;;;;;;25.34;49.93;99642.38;5070836;28;20196;-56
2022/06/17 08:22:26;;;;;;;7.45;6.75;;;;;;;25.28;49.70;99640.84;5069990;28;20428;-57
2022/06/17 08:24:55;;;;;;;7.97;7.00;;;;;;;25.19;49.37;99634.19;5070661;28;20191;-56
2022/06/17 08:27:23;;;;;;;8.20;6.43;;;;;;;25.40;49.27;99631.59;5070771;28;20211;-57
2022/06/17 08:29:51;;;;;;;7.60;6.90;;;;;;;25.37;48.54;99629.94;5071099;28;20195;-57
2022/06/17 08:35:19;;;;;;;7.90;7.20;;;;;;;25.62;48.78;99632.44;5028410;28;20189;-57
2022/06/17 08:37:51;;;;;;;7.73;6.93;;;;;;;25.56;48.22;99637.97;5029051;28;20602;-58
2022/06/17 08:40:35;;;;;;;7.47;6.17;;;;;;;25.64;47.89;99620.91;5048678;28;20686;-56
2022/06/17 08:43:29;;;;;;;8.43;6.87;;;;;;;25.76;48.78;99624.81;5070666;28;20246;-66
2022/06/17 08:46:08;;;;;;;7.40;6.80;;;;;;;25.91;48.46;99613.59;5066701;28;20438;-67
2022/06/17 08:48:48;;;;;;;7.70;6.80;;;;;;;26.04;47.27;99612.09;5070730;28;20559;-66
2022/06/17 08:51:29;;;;;;;9.73;6.83;;;;;;;25.80;47.29;99615.84;5070383;28;20277;-67
2022/06/17 08:54:16;;;;;;;11.63;7.73;;;;;;;25.96;47.38;99614.22;5070651;28;20195;-67
2022/06/17 08:56:50;;;;;;;7.60;6.97;;;;;;;26.12;46.70;99617.06;5070369;28;20679;-66
2022/06/17 08:59:36;;;;;;;8.63;7.30;;;;;;;26.05;46.30;99619.09;5070224;28;20191;-66
2022/06/17 09:02:09;;;;;;;9.57;8.20;;;;;;;26.11;46.88;99621.47;5070339;28;20195;-67
2022/06/17 09:04:55;;;;;;;8.40;7.57;;;;;;;26.26;46.56;99617.31;5070400;28;20195;-67
2022/06/17 09:07:33;;;;;;;7.57;6.90;;;;;;;26.34;46.09;99615.19;5070096;28;20199;-66
2022/06/17 09:10:14;;;;;;;7.90;7.20;;;;;;;26.29;45.57;99620.66;5069926;28;20191;-67
2022/06/17 09:12:55;;;;;;;9.23;8.00;;;;;;;26.22;45.84;99618.38;5070512;28;20199;-66
2022/06/17 09:15:34;;;;;;;8.67;7.87;;;;;;;26.48;46.74;99609.28;5070062;28;20191;-66
2022/06/17 09:18:09;;;;;;;8.90;8.20;;;;;;;26.62;45.44;99612.09;5070113;28;20233;-67
2022/06/17 09:20:38;;;;;;;8.55;7.75;;;;;;;26.34;45.82;99610.75;5069990;28;20195;-66
2022/06/17 09:23:06;;;;;;;9.23;7.90;;;;;;;26.16;46.95;99605.47;5069957;28;20332;-68
2022/06/17 09:25:39;;;;;;;8.95;8.15;;;;;;;26.48;46.59;99604.00;5069826;28;20253;-66
2022/06/17 09:28:10;;;;;;;9.60;8.00;;;;;;;26.55;46.29;99600.16;5069345;28;20191;-66
2022/06/17 09:30:45;;;;;;;9.23;8.33;;;;;;;26.71;45.90;99598.50;5069876;28;20226;-66
2022/06/17 09:33:17;;;;;;;9.40;8.43;;;;;;;26.50;46.09;99602.16;5069657;28;20643;-66
2022/06/17 09:35:49;;;;;;;9.27;8.47;;;;;;;26.55;45.49;99589.59;5069653;28;20196;-66
2022/06/17 09:38:21;;;;;;;10.73;8.17;;;;;;;26.70;45.76;99588.91;5069237;28;20213;-66
2022/06/17 09:40:55;;;;;;;8.90;8.13;;;;;;;26.76;45.56;99589.44;5069035;28;20199;-66
2022/06/17 09:43:29;;;;;;;8.83;8.07;;;;;;;27.02;45.22;99590.84;5069127;28;20263;-65
2022/06/17 09:46:01;;;;;;;7.93;7.32;;;;;;;27.12;44.66;99581.53;5069383;28;20192;-66
2022/06/17 09:48:36;;;;;;;9.80;8.97;;;;;;;27.08;44.58;99577.38;5069755;28;20752;-67
2022/06/17 09:51:09;;;;;;;9.00;8.10;;;;;;;27.11;43.46;99571.06;5069160;28;20194;-67
2022/06/17 09:53:41;;;;;;;8.30;7.50;;;;;;;27.24;43.29;99566.88;5069549;28;20196;-66
2022/06/17 09:56:15;;;;;;;8.57;7.77;;;;;;;27.36;43.65;99569.75;5069375;28;20191;-67
2022/06/17 09:58:50;;;;;;;10.90;9.77;;;;;;;27.68;44.08;99564.63;5069452;28;20187;-66
2022/06/17 10:01:17;;;;;;;9.23;8.40;;;;;;;27.92;43.49;99566.81;5069387;28;20199;-66
2022/06/17 10:03:44;;;;;;;8.55;7.70;;;;;;;28.04;42.17;99557.44;5069284;28;20199;-67
2022/06/17 10:06:27;;;;;;;9.18;8.27;;;;;;;28.07;42.89;99562.56;5069289;28;20196;-66
2022/06/17 10:09:03;;;;;;;8.60;7.75;;;;;;;28.22;42.22;99555.56;5068966;28;20198;-67
2022/06/17 10:11:40;;;;;;;9.52;8.63;;;;;;;28.45;41.31;99555.16;5068824;28;20195;-67
2022/06/17 10:14:18;;;;;;;9.68;8.75;;;;;;;28.63;41.56;99555.00;5069093;28;20324;-66
2022/06/17 10:19:52;;;;;;;9.77;8.07;;;;;;;28.80;40.31;99538.19;5069488;28;20253;-66
2022/06/17 10:22:32;;;;;;;9.65;8.55;;;;;;;28.85;39.88;99536.13;5069110;28;20195;-66
2022/06/17 10:25:09;;;;;;;11.13;9.02;;;;;;;28.96;41.32;99539.00;5068596;28;20214;-66
2022/06/17 10:27:58;;;;;;;10.00;8.52;;;;;;;29.10;39.68;99539.03;5068935;28;20187;-66
2022/06/17 10:30:35;;;;;;;9.20;8.50;;;;;;;29.19;39.45;99535.88;5068500;28;20195;-66
2022/06/17 10:33:02;;;;;;;10.97;9.30;;;;;;;29.25;38.88;99532.03;5068446;28;20437;-66
2022/06/17 10:35:31;;;;;;;9.68;8.77;;;;;;;29.32;39.36;99533.34;5068406;28;20243;-66
2022/06/17 10:38:01;;;;;;;9.85;8.82;;;;;;;29.24;38.30;99533.81;5068295;28;20215;-66
2022/06/17 10:40:31;;;;;;;9.82;7.82;;;;;;;29.30;38.54;99532.59;5068290;28;20203;-66
2022/06/17 10:43:06;;;;;;;9.48;8.57;;;;;;;29.37;38.74;99531.28;5068709;28;20223;-66
2022/06/17 10:45:35;;;;;;;9.43;8.70;;;;;;;29.46;38.27;99532.53;5068755;28;20195;-66
2022/06/17 10:48:06;;;;;;;11.98;9.15;;;;;;;29.37;39.64;99518.03;5068875;28;20662;-66
2022/06/17 10:50:33;;;;;;;10.45;9.35;;;;;;;29.47;40.17;99521.00;5068675;28;20578;-66
2022/06/17 10:53:07;;;;;;;9.43;8.52;;;;;;;29.46;39.32;99501.63;5068482;28;20207;-66
2022/06/17 10:55:37;;;;;;;10.82;9.43;;;;;;;29.71;39.57;99515.06;5068695;28;20188;-66
2022/06/17 10:58:16;;;;;;;9.45;8.65;;;;;;;29.73;39.18;99518.47;5068208;28;20227;-66
2022/06/17 11:00:52;;;;;;;10.82;9.55;;;;;;;29.70;38.79;99507.19;5068570;28;20666;-66
2022/06/17 11:03:24;;;;;;;13.05;11.82;;;;;;;29.70;39.98;99510.69;5068430;28;20199;-65
2022/06/17 11:05:56;;;;;;;10.52;8.50;;;;;;;29.64;38.69;99504.94;5072259;28;20188;-66
2022/06/17 11:08:26;;;;;;;11.80;10.23;;;;;;;29.58;39.76;99515.91;5071696;28;20359;-66
2022/06/17 11:10:57;;;;;;;13.45;11.57;;;;;;;29.67;39.81;99515.31;5071964;28;20210;-67
2022/06/17 11:13:26;;;;;;;10.68;9.32;;;;;;;29.62;38.72;99510.31;5072006;28;20290;-66
2022/06/17 11:15:57;;;;;;;12.23;9.30;;;;;;;29.59;39.00;99510.50;5071482;28;20195;-66
2022/06/17 11:18:31;;;;;;;10.82;8.82;;;;;;;29.56;38.38;99500.09;5071487;28;20211;-57
2022/06/17 11:21:01;;;;;;;12.95;10.30;;;;;;;29.69;39.03;99498.41;5071588;28;20191;-57
2022/06/17 11:23:31;;;;;;;12.10;9.40;;;;;;;29.88;37.99;99498.16;5071744;28;20192;-57
2022/06/17 11:26:13;;;;;;;13.48;9.30;;;;;;;29.82;38.96;99487.94;5071627;28;20585;-57
2022/06/17 11:28:44;;;;;;;11.32;8.65;;;;;;;29.94;38.10;99483.66;5071332;28;20215;-58
2022/06/17 11:31:15;;;;;;;9.38;8.57;;;;;;;29.72;37.26;99482.31;5071778;28;20207;-57
2022/06/17 11:33:57;;;;;;;9.65;8.75;;;;;;;29.77;38.10;99477.59;5071727;28;20652;-57
2022/06/17 11:36:27;;;;;;;9.77;8.88;;;;;;;29.81;37.93;99471.19;5071463;28;20206;-57
2022/06/17 11:38:54;;;;;;;10.20;9.20;;;;;;;29.66;37.14;99471.25;5071525;28;20207;-57
2022/06/17 11:41:24;;;;;;;9.95;8.73;;;;;;;29.68;37.60;99472.88;5071508;28;20198;-57
2022/06/17 11:43:54;;;;;;;10.85;8.98;;;;;;;29.85;36.53;99469.19;5070957;28;20613;-57
2022/06/17 11:46:23;;;;;;;9.57;8.57;;;;;;;29.80;35.86;99469.47;5071432;28;20195;-57
2022/06/17 11:48:55;;;;;;;9.82;8.93;;;;;;;29.95;36.43;99462.34;5071569;28;20195;-57
2022/06/17 11:51:28;;;;;;;10.45;9.48;;;;;;;29.98;36.67;99462.16;5071336;28;20222;-57
2022/06/17 11:53:58;;;;;;;10.70;9.63;;;;;;;30.11;37.04;99449.81;5071682;28;20195;-57
2022/06/17 11:56:31;;;;;;;11.43;10.43;;;;;;;30.27;37.97;99429.31;5071286;28;20188;-57